| time (UTC) | temp C | wind direction | speed KPH | gust KPH | rain 1hr cm | rain 24hr cm | rain mn cm | humidity % | barometer mb |
| 20260508133044 | 18 | 65 | 0.0 | 0.0 | 0.00 | 0.00 | 0.00 | 60 | 1002.9 |
| 20260508132538 | 18 | 62 | 0.0 | 0.0 | 0.00 | 0.00 | 0.00 | 61 | 1002.8 |
| 20260508132019 | 18 | 62 | 0.0 | 0.0 | 0.00 | 0.00 | 0.00 | 62 | 1002.8 |
| 20260508131521 | 17 | 62 | 0.0 | 0.0 | 0.00 | 0.00 | 0.00 | 62 | 1002.8 |
| 20260508131022 | 17 | 61 | 0.0 | 0.0 | 0.00 | 0.00 | 0.00 | 61 | 1002.7 |
| 20260508130517 | 17 | 64 | 0.0 | 0.0 | 0.00 | 0.00 | 0.00 | 63 | 1002.6 |
| 20260508130023 | 17 | 63 | 0.0 | 0.0 | 0.00 | 0.00 | 0.00 | 63 | 1002.5 |
| 20260508125515 | 17 | 63 | 0.0 | 0.0 | 0.00 | 0.00 | 0.00 | 63 | 1002.5 |
| 20260508125058 | -17 | 0.0 | 0.0 | 0.00 | 0.00 | 0.00 | 1002.4 | ||
| 20260508124602 | -17 | 0.0 | 0.0 | 0.00 | 0.00 | 0.00 | 1002.3 | ||
| 20260508124059 | -17 | 0.0 | 0.0 | 0.00 | 0.00 | 0.00 | 1002.4 | ||
| 20260508123558 | -17 | 0.0 | 0.0 | 0.00 | 0.00 | 0.00 | 1002.3 | ||
| 20260508123058 | -17 | 0.0 | 0.0 | 0.00 | 0.00 | 0.00 | 1002.3 | ||
| 20260508122557 | -17 | 0.0 | 0.0 | 0.00 | 0.00 | 0.00 | 1002.3 | ||
| 20260508122040 | -17 | 0.0 | 0.0 | 0.00 | 0.00 | 0.00 | 1002.3 | ||
| 20260508121540 | -17 | 0.0 | 0.0 | 0.00 | 0.00 | 0.00 | 1002.3 | ||
| 20260508121039 | -17 | 0.0 | 0.0 | 0.00 | 0.00 | 0.00 | 1002.3 | ||
| 20260508120540 | -17 | 0.0 | 0.0 | 0.00 | 0.00 | 0.00 | 1002.2 | ||
| 20260508120041 | -17 | 0.0 | 0.0 | 0.00 | 0.00 | 0.00 | 1002.2 | ||
| 20260508115539 | -17 | 0.0 | 0.0 | 0.00 | 0.00 | 0.00 | 1002.2 | ||
| 20260508115021 | -17 | 0.0 | 0.0 | 0.00 | 0.00 | 0.00 | 1002.2 | ||
| 20260508114531 | -17 | 0.0 | 0.0 | 0.00 | 0.00 | 0.00 | 1002.1 | ||
| 20260508114025 | -17 | 0.0 | 0.0 | 0.00 | 0.00 | 0.00 | 1002.2 | ||
| 20260508113522 | -17 | 0.0 | 0.0 | 0.00 | 0.00 | 0.00 | 1002.1 | ||
| 20260508113034 | -17 | 0.0 | 0.0 | 0.00 | 0.00 | 0.00 | 1002.1 | ||
| 20260508112521 | -17 | 0.0 | 0.0 | 0.00 | 0.00 | 0.00 | 1002.0 | ||
| 20260508112004 | -17 | 0.0 | 0.0 | 0.00 | 0.00 | 0.00 | 1002.0 | ||
| 20260508111504 | -17 | 0.0 | 0.0 | 0.00 | 0.00 | 0.00 | 1002.0 | ||
| 20260508111004 | -17 | 0.0 | 0.0 | 0.00 | 0.00 | 0.00 | 1001.9 | ||
| 20260508110503 | -17 | 0.0 | 0.0 | 0.00 | 0.00 | 0.00 | 1001.9 | ||
| 20260508110003 | -17 | 0.0 | 0.0 | 0.00 | 0.00 | 0.00 | 1001.9 | ||
| 20260508105503 | -17 | 0.0 | 0.0 | 0.00 | 0.00 | 0.00 | 1001.9 | ||
| 20260508105048 | -17 | 0.0 | 0.0 | 0.00 | 0.00 | 0.00 | 1001.9 | ||
| 20260508104554 | -17 | 0.0 | 0.0 | 0.00 | 0.00 | 0.00 | 1001.9 | ||
| 20260508104045 | -17 | 0.0 | 0.0 | 0.00 | 0.00 | 0.00 | 1001.9 | ||
| 20260508103545 | -17 | 0.0 | 0.0 | 0.00 | 0.00 | 0.00 | 1001.9 | ||
| 20260508103044 | -17 | 0.0 | 0.0 | 0.00 | 0.00 | 0.00 | 1002.0 | ||
| 20260508102545 | 18 | 252 | 0.0 | 0.0 | 0.00 | 0.00 | 0.00 | 63 | 1002.0 |
| 20260508102027 | 18 | 252 | 0.0 | 0.0 | 0.00 | 0.00 | 0.00 | 63 | 1002.0 |
| 20260508101535 | 18 | 252 | 0.0 | 0.0 | 0.00 | 0.00 | 0.00 | 62 | 1001.9 |
| 20260508101026 | 18 | 252 | 0.0 | 0.0 | 0.00 | 0.00 | 0.00 | 62 | 1001.9 |
| 20260508100526 | 18 | 252 | 0.0 | 0.0 | 0.00 | 0.00 | 0.00 | 62 | 1001.9 |
| 20260508100034 | 18 | 252 | 0.0 | 0.0 | 0.00 | 0.00 | 0.00 | 62 | 1001.8 |
| 20260508095526 | 18 | 251 | 0.0 | 0.0 | 0.00 | 0.00 | 0.00 | 62 | 1001.8 |
| 20260508095014 | 18 | 252 | 0.0 | 0.0 | 0.00 | 0.00 | 0.00 | 61 | 1001.8 |
| 20260508094514 | 18 | 252 | 0.0 | 0.0 | 0.00 | 0.00 | 0.00 | 61 | 1001.7 |
| 20260508094015 | 18 | 252 | 0.0 | 0.0 | 0.00 | 0.00 | 0.00 | 61 | 1001.7 |
| 20260508093514 | 18 | 252 | 0.0 | 0.0 | 0.00 | 0.00 | 0.00 | 61 | 1001.7 |
| 20260508093015 | 18 | 252 | 0.0 | 0.0 | 0.00 | 0.00 | 0.00 | 61 | 1001.6 |
| 20260508092513 | 18 | 251 | 0.0 | 0.0 | 0.00 | 0.00 | 0.00 | 61 | 1001.7 |
| 20260508092014 | 18 | 252 | 0.0 | 0.0 | 0.00 | 0.00 | 0.00 | 61 | 1001.7 |
| 20260508091513 | 18 | 252 | 0.0 | 0.0 | 0.00 | 0.00 | 0.00 | 61 | 1001.6 |
| 20260508091020 | 18 | 252 | 0.0 | 0.0 | 0.00 | 0.00 | 0.00 | 61 | 1001.5 |
| 20260508090517 | 18 | 252 | 0.0 | 0.0 | 0.00 | 0.00 | 0.00 | 60 | 1001.5 |
| 20260508090014 | 18 | 252 | 0.0 | 0.0 | 0.00 | 0.00 | 0.00 | 60 | 1001.6 |
| 20260508085513 | 18 | 252 | 0.0 | 0.0 | 0.00 | 0.00 | 0.00 | 59 | 1001.7 |
| 20260508085012 | 18 | 252 | 0.0 | 0.0 | 0.00 | 0.00 | 0.00 | 59 | 1001.7 |
| 20260508084512 | 18 | 252 | 0.0 | 0.0 | 0.00 | 0.00 | 0.00 | 58 | 1001.7 |
| 20260508084013 | 18 | 251 | 0.0 | 0.0 | 0.00 | 0.00 | 0.00 | 59 | 1001.7 |
| 20260508083512 | 19 | 252 | 0.0 | 0.0 | 0.00 | 0.00 | 0.00 | 58 | 1001.7 |
| 20260508083012 | 19 | 248 | 0.0 | 0.0 | 0.00 | 0.00 | 0.00 | 57 | 1001.7 |
| 20260508082517 | 20 | 262 | 0.0 | 0.0 | 0.00 | 0.00 | 0.00 | 56 | 1001.6 |
| 20260508082011 | 20 | 266 | 0.0 | 0.0 | 0.00 | 0.00 | 0.00 | 56 | 1001.7 |
| 20260508081514 | 20 | 262 | 0.0 | 0.0 | 0.00 | 0.00 | 0.00 | 56 | 1001.8 |
| 20260508081010 | 20 | 258 | 0.0 | 0.0 | 0.00 | 0.00 | 0.00 | 56 | 1001.8 |
| 20260508080511 | 20 | 257 | 0.0 | 0.0 | 0.00 | 0.00 | 0.00 | 55 | 1001.9 |
| 20260508080011 | 20 | 257 | 0.0 | 0.0 | 0.00 | 0.00 | 0.00 | 56 | 1001.9 |
| 20260508075512 | 20 | 257 | 0.0 | 0.0 | 0.00 | 0.00 | 0.00 | 56 | 1002.0 |
| 20260508075111 | 20 | 258 | 0.0 | 0.0 | 0.00 | 0.00 | 0.00 | 55 | 1002.0 |
| 20260508074604 | 20 | 257 | 0.0 | 1.6 | 0.00 | 0.00 | 0.00 | 55 | 1002.1 |
| 20260508074058 | 20 | 257 | 0.0 | 1.6 | 0.00 | 0.00 | 0.00 | 55 | 1002.2 |
| 20260508073559 | 20 | 240 | 0.0 | 1.6 | 0.00 | 0.00 | 0.00 | 54 | 1002.3 |
| 20260508073107 | 20 | 257 | 0.0 | 1.6 | 0.00 | 0.00 | 0.00 | 53 | 1002.3 |
| 20260508072559 | 21 | 233 | 0.0 | 1.6 | 0.00 | 0.00 | 0.00 | 52 | 1002.5 |
| 20260508072058 | 21 | 231 | 0.0 | 1.6 | 0.00 | 0.00 | 0.00 | 50 | 1002.6 |
| 20260508071601 | 21 | 195 | 0.0 | 0.0 | 0.00 | 0.00 | 0.00 | 49 | 1002.5 |
| 20260508071058 | 21 | 196 | 0.0 | 0.0 | 0.00 | 0.00 | 0.00 | 48 | 1002.6 |
| 20260508070557 | 21 | 160 | 0.0 | 3.2 | 0.00 | 0.00 | 0.00 | 48 | 1002.6 |
| 20260508065558 | 21 | 186 | 0.0 | 6.4 | 0.00 | 0.00 | 0.00 | 48 | 1002.6 |
| 20260508065057 | 21 | 74 | 0.0 | 6.4 | 0.00 | 0.00 | 0.00 | 49 | 1002.5 |
| 20260508064606 | 21 | 51 | 0.0 | 1.6 | 0.00 | 0.00 | 0.00 | 49 | 1002.6 |
| 20260508064056 | 21 | 68 | 0.0 | 1.6 | 0.00 | 0.00 | 0.00 | 49 | 1002.6 |
| 20260508063556 | 21 | 49 | 0.0 | 9.7 | 0.00 | 0.00 | 0.00 | 49 | 1002.5 |
| 20260508063156 | 21 | 68 | 3.2 | 9.7 | 0.00 | 0.00 | 0.00 | 48 | 1002.5 |
| 20260508062555 | 21 | 69 | 0.0 | 1.6 | 0.00 | 0.00 | 0.00 | 49 | 1002.4 |
| 20260508062055 | 21 | 80 | 0.0 | 1.6 | 0.00 | 0.00 | 0.00 | 51 | 1002.5 |
| 20260508061600 | 21 | 56 | 0.0 | 1.6 | 0.00 | 0.00 | 0.00 | 51 | 1002.6 |
| 20260508061055 | 21 | 18 | 0.0 | 0.0 | 0.00 | 0.00 | 0.00 | 51 | 1002.6 |
| 20260508060555 | 21 | 53 | 0.0 | 0.0 | 0.00 | 0.00 | 0.00 | 51 | 1002.6 |
| 20260508060155 | 21 | 61 | 0.0 | 3.2 | 0.00 | 0.00 | 0.00 | 50 | 1002.6 |
| 20260508055554 | 22 | 69 | 0.0 | 3.2 | 0.00 | 0.00 | 0.00 | 48 | 1002.6 |
| 20260508055054 | 21 | 166 | 0.0 | 3.2 | 0.00 | 0.00 | 0.00 | 49 | 1002.6 |
| 20260508054600 | 21 | 107 | 0.0 | 4.8 | 0.00 | 0.00 | 0.00 | 49 | 1002.7 |
| 20260508054036 | 21 | 79 | 0.0 | 9.7 | 0.00 | 0.00 | 0.00 | 50 | 1002.7 |
| 20260508053536 | 21 | 70 | 3.2 | 11.3 | 0.00 | 0.00 | 0.00 | 50 | 1002.6 |
| 20260508053036 | 21 | 96 | 0.0 | 16.1 | 0.00 | 0.00 | 0.00 | 51 | 1002.5 |
| 20260508052536 | 22 | 73 | 0.0 | 16.1 | 0.00 | 0.00 | 0.00 | 51 | 1002.4 |
| 20260508052035 | 22 | 57 | 0.0 | 8.0 | 0.00 | 0.00 | 0.00 | 51 | 1002.4 |
| 20260508051527 | 22 | 68 | 0.0 | 16.1 | 0.00 | 0.00 | 0.00 | 52 | 1002.3 |
| 20260508051024 | 22 | 70 | 0.0 | 16.1 | 0.00 | 0.00 | 0.00 | 52 | 1002.2 |
| 20260508050524 | 22 | 56 | 3.2 | 12.9 | 0.00 | 0.00 | 0.00 | 52 | 1002.1 |
| 20260508050034 | 22 | 98 | 1.6 | 14.5 | 0.00 | 0.00 | 0.00 | 53 | 1002.0 |
| 20260508045523 | 22 | 67 | 4.8 | 14.5 | 0.00 | 0.00 | 0.00 | 53 | 1001.9 |
| 20260508045023 | 22 | 63 | 3.2 | 14.5 | 0.00 | 0.00 | 0.00 | 54 | 1001.8 |
| 20260508044525 | 22 | 76 | 1.6 | 14.5 | 0.00 | 0.00 | 0.00 | 55 | 1001.7 |
| 20260508044022 | 22 | 104 | 1.6 | 16.1 | 0.00 | 0.00 | 0.00 | 56 | 1001.7 |
| 20260508043522 | 22 | 41 | 3.2 | 24.1 | 0.00 | 0.00 | 0.00 | 57 | 1001.6 |
| 20260508043031 | 22 | 6 | 6.4 | 24.1 | 0.00 | 0.00 | 0.00 | 57 | 1001.7 |
| 20260508042522 | 22 | 105 | 3.2 | 17.7 | 0.00 | 0.00 | 0.00 | 57 | 1001.5 |
| 20260508042022 | 22 | 63 | 4.8 | 20.9 | 0.00 | 0.00 | 0.00 | 57 | 1001.5 |
| 20260508041522 | 23 | 44 | 4.8 | 22.5 | 0.00 | 0.00 | 0.00 | 58 | 1001.3 |
| 20260508041022 | 23 | 114 | 4.8 | 22.5 | 0.00 | 0.00 | 0.00 | 57 | 1001.4 |
| 20260508040522 | 23 | 94 | 3.2 | 16.1 | 0.00 | 0.00 | 0.00 | 56 | 1001.3 |
| 20260508040021 | 23 | 60 | 3.2 | 17.7 | 0.00 | 0.00 | 0.00 | 55 | 1001.1 |
| 20260508035524 | 23 | 350 | 4.8 | 17.7 | 0.00 | 0.00 | 0.00 | 56 | 1000.8 |
| 20260508035021 | 24 | 27 | 1.6 | 14.5 | 0.00 | 0.00 | 0.00 | 58 | 1000.9 |
| 20260508034526 | 24 | 68 | 4.8 | 14.5 | 0.00 | 0.00 | 0.00 | 60 | 1000.8 |
| 20260508034020 | 24 | 38 | 3.2 | 16.1 | 0.00 | 0.00 | 0.00 | 57 | 1000.8 |
| 20260508033520 | 24 | 70 | 0.0 | 1.6 | 0.00 | 0.00 | 0.00 | 55 | 1000.7 |
| 20260508033020 | 24 | 72 | 0.0 | 3.2 | 0.00 | 0.00 | 0.00 | 58 | 1000.6 |
| 20260508032520 | 24 | 62 | 0.0 | 3.2 | 0.00 | 0.00 | 0.00 | 58 | 1000.5 |
| 20260508032020 | 24 | 121 | 0.0 | 9.7 | 0.00 | 0.00 | 0.00 | 59 | 1000.5 |
| 20260508031503 | 24 | 53 | 1.6 | 9.7 | 0.00 | 0.00 | 0.00 | 60 | 1000.4 |
| 20260508031002 | 24 | 69 | 3.2 | 11.3 | 0.00 | 0.00 | 0.00 | 60 | 1000.3 |
| 20260508030505 | 24 | 91 | 3.2 | 11.3 | 0.00 | 0.00 | 0.00 | 60 | 1000.2 |
| 20260508030002 | 25 | 96 | 0.0 | 1.6 | 0.00 | 0.00 | 0.00 | 59 | 1000.1 |
| 20260508025501 | 25 | 57 | 0.0 | 1.6 | 0.00 | 0.00 | 0.00 | 59 | 1000.1 |
| 20260508025001 | 25 | 60 | 0.0 | 1.6 | 0.00 | 0.00 | 0.00 | 58 | 1000.1 |
| 20260508024543 | 25 | 49 | 0.0 | 1.6 | 0.00 | 0.00 | 0.00 | 58 | 1000.1 |
| 20260508024043 | 25 | 67 | 0.0 | 1.6 | 0.00 | 0.00 | 0.00 | 57 | 1000.0 |
| 20260508023543 | 25 | 75 | 0.0 | 1.6 | 0.00 | 0.00 | 0.00 | 57 | 1000.0 |
| 20260508023042 | 25 | 71 | 0.0 | 1.6 | 0.00 | 0.00 | 0.00 | 57 | 999.9 |
| 20260508022542 | 25 | 68 | 0.0 | 1.6 | 0.00 | 0.00 | 0.00 | 56 | 999.8 |
| 20260508022042 | 25 | 62 | 0.0 | 1.6 | 0.00 | 0.00 | 0.00 | 56 | 999.7 |
| 20260508021523 | 25 | 63 | 0.0 | 1.6 | 0.00 | 0.00 | 0.00 | 55 | 999.7 |
| 20260508021028 | 25 | 62 | 0.0 | 1.6 | 0.00 | 0.00 | 0.00 | 55 | 999.7 |
| 20260508020523 | 25 | 70 | 0.0 | 1.6 | 0.00 | 0.00 | 0.00 | 53 | 999.7 |
| 20260508020023 | 26 | 70 | 0.0 | 1.6 | 0.00 | 0.00 | 0.00 | 52 | 999.5 |
| 20260508015523 | 26 | 76 | 0.0 | 1.6 | 0.00 | 0.00 | 0.00 | 51 | 999.4 |
| 20260508015028 | 26 | 185 | 0.0 | 1.6 | 0.00 | 0.00 | 0.00 | 51 | 999.4 |
| 20260508014504 | 26 | 56 | 0.0 | 1.6 | 0.00 | 0.00 | 0.00 | 46 | 999.2 |
| 20260508014006 | 26 | 60 | 0.0 | 6.4 | 0.00 | 0.00 | 0.00 | 45 | 999.3 |
| 20260508013502 | 27 | 61 | 0.0 | 9.7 | 0.00 | 0.00 | 0.00 | 35 | 999.3 |
| 20260508013005 | 27 | 62 | 3.2 | 6.4 | 0.00 | 0.00 | 0.00 | 25 | 999.2 |
| 20260508012506 | 27 | 236 | 0.0 | 0.0 | 0.00 | 0.00 | 0.00 | 24 | 999.0 |
| 20260508012003 | 27 | 236 | 0.0 | 1.6 | 0.00 | 0.00 | 0.00 | 24 | 998.8 |
| 20260508011550 | 27 | 236 | 0.0 | 1.6 | 0.00 | 0.00 | 0.00 | 24 | 998.8 |
| 20260508011046 | 27 | 231 | 0.0 | 1.6 | 0.00 | 0.00 | 0.00 | 23 | 998.8 |
| 20260508010545 | 28 | 255 | 0.0 | 1.6 | 0.00 | 0.00 | 0.00 | 23 | 998.7 |
| 20260508010044 | 28 | 257 | 0.0 | 1.6 | 0.00 | 0.00 | 0.00 | 23 | 998.6 |
| 20260508005548 | 28 | 269 | 0.0 | 1.6 | 0.00 | 0.00 | 0.00 | 22 | 998.5 |
| 20260508005047 | 28 | 253 | 0.0 | 1.6 | 0.00 | 0.00 | 0.00 | 22 | 998.5 |
| 20260508004536 | 28 | 263 | 0.0 | 1.6 | 0.00 | 0.00 | 0.00 | 22 | 998.4 |
| 20260508004027 | 28 | 259 | 0.0 | 1.6 | 0.00 | 0.00 | 0.00 | 21 | 998.4 |
| 20260508003526 | 28 | 248 | 0.0 | 1.6 | 0.00 | 0.00 | 0.00 | 21 | 998.4 |
| 20260508003026 | 29 | 252 | 0.0 | 1.6 | 0.00 | 0.00 | 0.00 | 21 | 998.3 |
| 20260508002526 | 29 | 257 | 0.0 | 1.6 | 0.00 | 0.00 | 0.00 | 20 | 998.3 |
| 20260508002026 | 29 | 255 | 0.0 | 1.6 | 0.00 | 0.00 | 0.00 | 20 | 998.3 |
| 20260508001510 | 29 | 253 | 0.0 | 1.6 | 0.00 | 0.00 | 0.00 | 20 | 998.3 |
| 20260508001008 | 29 | 242 | 0.0 | 1.6 | 0.00 | 0.00 | 0.00 | 20 | 998.2 |
| 20260508000511 | 30 | 270 | 0.0 | 1.6 | 0.00 | 0.00 | 0.00 | 21 | 998.2 |
| 20260508000008 | 30 | 233 | 0.0 | 1.6 | 0.00 | 0.00 | 0.00 | 20 | 998.2 |
| 20260507235507 | 30 | 231 | 0.0 | 1.6 | 0.00 | 0.00 | 0.00 | 20 | 998.2 |
| 20260507235010 | 30 | 252 | 0.0 | 1.6 | 0.00 | 0.00 | 0.00 | 20 | 998.1 |
| 20260507234607 | 30 | 271 | 0.0 | 1.6 | 0.00 | 0.00 | 0.00 | 21 | 998.1 |
| 20260507234052 | 30 | 256 | 0.0 | 1.6 | 0.00 | 0.00 | 0.00 | 20 | 998.1 |
| 20260507233549 | 30 | 269 | 0.0 | 1.6 | 0.00 | 0.00 | 0.00 | 20 | 998.2 |
| 20260507233048 | 30 | 207 | 0.0 | 1.6 | 0.00 | 0.00 | 0.00 | 21 | 998.2 |
| 20260507232548 | 30 | 245 | 0.0 | 1.6 | 0.00 | 0.00 | 0.00 | 20 | 998.2 |
| 20260507232048 | 30 | 246 | 0.0 | 1.6 | 0.00 | 0.00 | 0.00 | 20 | 998.2 |
| 20260507231550 | 31 | 222 | 0.0 | 1.6 | 0.00 | 0.00 | 0.00 | 20 | 998.2 |
| 20260507231029 | 31 | 246 | 0.0 | 1.6 | 0.00 | 0.00 | 0.00 | 20 | 998.1 |
| 20260507230533 | 31 | 259 | 0.0 | 1.6 | 0.00 | 0.00 | 0.00 | 19 | 998.2 |
| 20260507230028 | 31 | 246 | 0.0 | 1.6 | 0.00 | 0.00 | 0.00 | 21 | 998.2 |
| 20260507225530 | 31 | 253 | 0.0 | 1.6 | 0.00 | 0.00 | 0.00 | 21 | 998.2 |
| 20260507225027 | 31 | 300 | 0.0 | 0.0 | 0.00 | 0.00 | 0.00 | 21 | 998.2 |
| 20260507224527 | 31 | 243 | 0.0 | 0.0 | 0.00 | 0.00 | 0.00 | 21 | 998.4 |
| 20260507224008 | 31 | 8 | 0.0 | 0.0 | 0.00 | 0.00 | 0.00 | 20 | 998.4 |
| 20260507223509 | 31 | 249 | 0.0 | 0.0 | 0.00 | 0.00 | 0.00 | 20 | 998.4 |
| 20260507223012 | 31 | 47 | 0.0 | 0.0 | 0.00 | 0.00 | 0.00 | 21 | 998.4 |
| 20260507222511 | 31 | 4 | 0.0 | 1.6 | 0.00 | 0.00 | 0.00 | 21 | 998.5 |
| 20260507222005 | 31 | 340 | 0.0 | 1.6 | 0.00 | 0.00 | 0.00 | 21 | 998.6 |
| 20260507221505 | 31 | 256 | 0.0 | 1.6 | 0.00 | 0.00 | 0.00 | 21 | 998.6 |
| 20260507221047 | 31 | 236 | 0.0 | 3.2 | 0.00 | 0.00 | 0.00 | 21 | 998.6 |
| 20260507220547 | 31 | 303 | 0.0 | 3.2 | 0.00 | 0.00 | 0.00 | 22 | 998.7 |
| 20260507220046 | 31 | 134 | 0.0 | 1.6 | 0.00 | 0.00 | 0.00 | 21 | 998.7 |
| 20260507215546 | 31 | 280 | 0.0 | 3.2 | 0.00 | 0.00 | 0.00 | 22 | 998.9 |
| 20260507215047 | 31 | 57 | 0.0 | 3.2 | 0.00 | 0.00 | 0.00 | 22 | 998.9 |
| 20260507214546 | 31 | 98 | 0.0 | 0.0 | 0.00 | 0.00 | 0.00 | 22 | 998.9 |
| 20260507214032 | 31 | 243 | 0.0 | 1.6 | 0.00 | 0.00 | 0.00 | 23 | 999.0 |
| 20260507213533 | 31 | 245 | 0.0 | 1.6 | 0.00 | 0.00 | 0.00 | 22 | 999.1 |
| 20260507213038 | 31 | 246 | 0.0 | 1.6 | 0.00 | 0.00 | 0.00 | 22 | 999.1 |
| 20260507212530 | 31 | 236 | 0.0 | 1.6 | 0.00 | 0.00 | 0.00 | 23 | 999.2 |
| 20260507212032 | 31 | 119 | 0.0 | 1.6 | 0.00 | 0.00 | 0.00 | 23 | 999.3 |
| 20260507211541 | 31 | 246 | 0.0 | 1.6 | 0.00 | 0.00 | 0.00 | 23 | 999.4 |
| 20260507211028 | 31 | 232 | 0.0 | 24.1 | 0.00 | 0.00 | 0.00 | 23 | 999.5 |
| 20260507210528 | 31 | 232 | 8.0 | 24.1 | 0.00 | 0.00 | 0.00 | 22 | 999.6 |
| 20260507210027 | 31 | 221 | 0.0 | 1.6 | 0.00 | 0.00 | 0.00 | 22 | 999.6 |
| 20260507205526 | 31 | 252 | 0.0 | 1.6 | 0.00 | 0.00 | 0.00 | 23 | 999.6 |
| 20260507205025 | 31 | 146 | 0.0 | 1.6 | 0.00 | 0.00 | 0.00 | 23 | 999.7 |
| 20260507204524 | 31 | 226 | 0.0 | 1.6 | 0.00 | 0.00 | 0.00 | 23 | 999.8 |
| 20260507204024 | 31 | 271 | 0.0 | 0.0 | 0.00 | 0.00 | 0.00 | 22 | 999.8 |
| 20260507203523 | 31 | 233 | 0.0 | 1.6 | 0.00 | 0.00 | 0.00 | 23 | 1000.0 |
| 20260507203023 | 31 | 65 | 0.0 | 3.2 | 0.00 | 0.00 | 0.00 | 23 | 999.9 |
| 20260507202522 | 31 | 156 | 0.0 | 0.0 | 0.00 | 0.00 | 0.00 | 23 | 1000.1 |
| 20260507202022 | 31 | 5 | 0.0 | 0.0 | 0.00 | 0.00 | 0.00 | 22 | 1000.1 |
| 20260507201521 | 31 | 65 | 0.0 | 0.0 | 0.00 | 0.00 | 0.00 | 22 | 1000.2 |
| 20260507201021 | 31 | 257 | 0.0 | 0.0 | 0.00 | 0.00 | 0.00 | 22 | 1000.3 |
| 20260507200519 | 32 | 17 | 0.0 | 1.6 | 0.00 | 0.00 | 0.00 | 22 | 1000.3 |
| 20260507200020 | 32 | 246 | 0.0 | 1.6 | 0.00 | 0.00 | 0.00 | 22 | 1000.4 |
| 20260507195518 | 31 | 302 | 0.0 | 0.0 | 0.00 | 0.00 | 0.00 | 24 | 1000.5 |
| 20260507195022 | 32 | 56 | 0.0 | 1.6 | 0.00 | 0.00 | 0.00 | 22 | 1000.7 |
| 20260507194517 | 31 | 269 | 0.0 | 1.6 | 0.00 | 0.00 | 0.00 | 25 | 1000.7 |
| 20260507194057 | 30 | 109 | 0.0 | 1.6 | 0.00 | 0.00 | 0.00 | 25 | 1000.9 |
| 20260507193556 | 31 | 249 | 0.0 | 1.6 | 0.00 | 0.00 | 0.00 | 25 | 1001.1 |
| 20260507193100 | 30 | 248 | 0.0 | 1.6 | 0.00 | 0.00 | 0.00 | 25 | 1001.1 |
| 20260507192554 | 31 | 303 | 0.0 | 1.6 | 0.00 | 0.00 | 0.00 | 25 | 1001.2 |
| 20260507192052 | 31 | 235 | 0.0 | 1.6 | 0.00 | 0.00 | 0.00 | 26 | 1001.4 |
| 20260507191551 | 30 | 250 | 0.0 | 1.6 | 0.00 | 0.00 | 0.00 | 26 | 1001.5 |
| 20260507191039 | 30 | 298 | 0.0 | 1.6 | 0.00 | 0.00 | 0.00 | 26 | 1001.6 |
| 20260507190537 | 30 | 229 | 0.0 | 14.5 | 0.00 | 0.00 | 0.00 | 25 | 1001.7 |
| 20260507190039 | 30 | 239 | 0.0 | 14.5 | 0.00 | 0.00 | 0.00 | 26 | 1001.9 |
| 20260507185536 | 30 | 255 | 0.0 | 1.6 | 0.00 | 0.00 | 0.00 | 25 | 1001.9 |
| 20260507185034 | 30 | 250 | 0.0 | 1.6 | 0.00 | 0.00 | 0.00 | 27 | 1002.0 |
| 20260507184535 | 30 | 259 | 0.0 | 1.6 | 0.00 | 0.00 | 0.00 | 26 | 1002.1 |
| 20260507184037 | 30 | 34 | 0.0 | 1.6 | 0.00 | 0.00 | 0.00 | 27 | 1002.2 |
| 20260507183534 | 30 | 159 | 0.0 | 1.6 | 0.00 | 0.00 | 0.00 | 26 | 1002.3 |
| 20260507183031 | 29 | 229 | 0.0 | 1.6 | 0.00 | 0.00 | 0.00 | 28 | 1002.4 |
| 20260507182531 | 28 | 1 | 0.0 | 1.6 | 0.00 | 0.00 | 0.00 | 26 | 1002.6 |
| 20260507182030 | 29 | 249 | 0.0 | 1.6 | 0.00 | 0.00 | 0.00 | 27 | 1002.6 |
| 20260507181528 | 29 | 246 | 0.0 | 1.6 | 0.00 | 0.00 | 0.00 | 27 | 1002.8 |
| 20260507181027 | 29 | 271 | 0.0 | 1.6 | 0.00 | 0.00 | 0.00 | 29 | 1002.8 |
| 20260507180527 | 30 | 236 | 0.0 | 1.6 | 0.00 | 0.00 | 0.00 | 29 | 1002.8 |
| 20260507180025 | 29 | 229 | 0.0 | 0.0 | 0.00 | 0.00 | 0.00 | 31 | 1003.0 |
| 20260507175523 | 28 | 228 | 0.0 | 0.0 | 0.00 | 0.00 | 0.00 | 31 | 1003.2 |
| 20260507175022 | 28 | 231 | 0.0 | 0.0 | 0.00 | 0.00 | 0.00 | 31 | 1003.3 |
| 20260507174540 | 28 | 356 | 0.0 | 1.6 | 0.00 | 0.00 | 0.00 | 32 | 1003.3 |
| 20260507174019 | 28 | 273 | 0.0 | 1.6 | 0.00 | 0.00 | 0.00 | 32 | 1003.4 |
| 20260507173521 | 28 | 244 | 0.0 | 1.6 | 0.00 | 0.00 | 0.00 | 34 | 1003.5 |
| 20260507173022 | 27 | 280 | 0.0 | 1.6 | 0.00 | 0.00 | 0.00 | 34 | 1003.6 |
| 20260507172517 | 27 | 195 | 0.0 | 1.6 | 0.00 | 0.00 | 0.00 | 33 | 1003.7 |
| 20260507172022 | 27 | 242 | 0.0 | 0.0 | 0.00 | 0.00 | 0.00 | 35 | 1003.7 |
| 20260507171518 | 27 | 238 | 0.0 | 0.0 | 0.00 | 0.00 | 0.00 | 35 | 1003.7 |
| 20260507171115 | 27 | 269 | 0.0 | 0.0 | 0.00 | 0.00 | 0.00 | 36 | 1003.9 |
| 20260507170555 | 27 | 30 | 0.0 | 0.0 | 0.00 | 0.00 | 0.00 | 36 | 1003.9 |
| 20260507170057 | 26 | 278 | 0.0 | 0.0 | 0.00 | 0.00 | 0.00 | 37 | 1004.0 |
| 20260507165555 | 26 | 348 | 0.0 | 0.0 | 0.00 | 0.00 | 0.00 | 36 | 1004.0 |
| 20260507165053 | 26 | 44 | 0.0 | 1.6 | 0.00 | 0.00 | 0.00 | 37 | 1004.2 |
| 20260507164554 | 26 | 246 | 0.0 | 1.6 | 0.00 | 0.00 | 0.00 | 37 | 1004.2 |
| 20260507164051 | 26 | 235 | 0.0 | 1.6 | 0.00 | 0.00 | 0.00 | 37 | 1004.3 |
| 20260507163532 | 25 | 42 | 0.0 | 1.6 | 0.00 | 0.00 | 0.00 | 38 | 1004.4 |
| 20260507163031 | 25 | 245 | 0.0 | 1.6 | 0.00 | 0.00 | 0.00 | 38 | 1004.5 |
| 20260507162531 | 25 | 262 | 0.0 | 1.6 | 0.00 | 0.00 | 0.00 | 37 | 1004.5 |
| 20260507162031 | 25 | 242 | 0.0 | 1.6 | 0.00 | 0.00 | 0.00 | 41 | 1004.5 |
| 20260507161528 | 25 | 263 | 0.0 | 1.6 | 0.00 | 0.00 | 0.00 | 40 | 1004.4 |
| 20260507161028 | 25 | 238 | 0.0 | 1.6 | 0.00 | 0.00 | 0.00 | 43 | 1004.5 |
| 20260507160512 | 24 | 253 | 0.0 | 1.6 | 0.00 | 0.00 | 0.00 | 42 | 1004.5 |
| 20260507160012 | 24 | 253 | 0.0 | 1.6 | 0.00 | 0.00 | 0.00 | 43 | 1004.6 |
| 20260507155507 | 24 | 275 | 0.0 | 0.0 | 0.00 | 0.00 | 0.00 | 44 | 1004.7 |
| 20260507155007 | 23 | 256 | 0.0 | 0.0 | 0.00 | 0.00 | 0.00 | 45 | 1004.8 |
| 20260507154505 | 23 | 249 | 0.0 | 0.0 | 0.00 | 0.00 | 0.00 | 46 | 1004.9 |
| 20260507154005 | 23 | 299 | 0.0 | 1.6 | 0.00 | 0.00 | 0.00 | 46 | 1004.8 |
| 20260507153548 | 23 | 259 | 0.0 | 1.6 | 0.00 | 0.00 | 0.00 | 47 | 1004.9 |
| 20260507153044 | 23 | 236 | 0.0 | 1.6 | 0.00 | 0.00 | 0.00 | 48 | 1004.9 |
| 20260507152553 | 22 | 259 | 0.0 | 1.6 | 0.00 | 0.00 | 0.00 | 48 | 1005.0 |
| 20260507152046 | 22 | 258 | 0.0 | 1.6 | 0.00 | 0.00 | 0.00 | 48 | 1004.9 |
| 20260507151541 | 22 | 169 | 0.0 | 0.0 | 0.00 | 0.00 | 0.00 | 48 | 1005.0 |
| 20260507151040 | 22 | 274 | 0.0 | 0.0 | 0.00 | 0.00 | 0.00 | 50 | 1005.0 |
| 20260507150522 | 22 | 250 | 0.0 | 0.0 | 0.00 | 0.00 | 0.00 | 49 | 1005.0 |
| 20260507150021 | 22 | 248 | 0.0 | 0.0 | 0.00 | 0.00 | 0.00 | 50 | 1005.0 |
| 20260507145520 | 21 | 246 | 0.0 | 0.0 | 0.00 | 0.00 | 0.00 | 51 | 1005.0 |
| 20260507145025 | 21 | 264 | 0.0 | 0.0 | 0.00 | 0.00 | 0.00 | 51 | 1004.8 |
| 20260507144521 | 21 | 263 | 0.0 | 0.0 | 0.00 | 0.00 | 0.00 | 51 | 1004.8 |
| 20260507144019 | 21 | 256 | 0.0 | 1.6 | 0.00 | 0.00 | 0.00 | 50 | 1004.7 |
| 20260507143559 | 21 | 46 | 0.0 | 1.6 | 0.00 | 0.00 | 0.00 | 50 | 1004.8 |
| 20260507143114 | 21 | 67 | 0.0 | 0.0 | 0.00 | 0.00 | 0.00 | 52 | 1004.7 |
| 20260507142601 | 20 | 66 | 0.0 | 0.0 | 0.00 | 0.00 | 0.00 | 53 | 1004.7 |
| 20260507142057 | 20 | 67 | 0.0 | 0.0 | 0.00 | 0.00 | 0.00 | 54 | 1004.7 |
| 20260507141617 | 20 | 68 | 0.0 | 0.0 | 0.00 | 0.00 | 0.00 | 55 | 1004.7 |
| 20260507141054 | 19 | 96 | 0.0 | 0.0 | 0.00 | 0.00 | 0.00 | 57 | 1004.6 |
| 20260507140536 | 18 | 66 | 0.0 | 0.0 | 0.00 | 0.00 | 0.00 | 58 | 1004.6 |
| 20260507140044 | 18 | 66 | 0.0 | 0.0 | 0.00 | 0.00 | 0.00 | 59 | 1004.5 |
| 20260507135533 | 18 | 49 | 0.0 | 0.0 | 0.00 | 0.00 | 0.00 | 61 | 1004.5 |
| 20260507135031 | 18 | 65 | 0.0 | 0.0 | 0.00 | 0.00 | 0.00 | 62 | 1004.4 |
| 20260507134531 | 17 | 70 | 0.0 | 0.0 | 0.00 | 0.00 | 0.00 | 62 | 1004.3 |
| 20260507134029 | 17 | 70 | 0.0 | 0.0 | 0.00 | 0.00 | 0.00 | 63 | 1004.3 |
| 20260507133510 | 17 | 65 | 0.0 | 0.0 | 0.00 | 0.00 | 0.00 | 65 | 1004.2 |